createdAt,value
2022-12-15T00:01:25.699Z,97607.52
2022-12-15T00:04:12.886Z,97605.85
2022-12-15T00:06:59.244Z,97600.31
2022-12-15T00:09:49.573Z,97601.02
2022-12-15T00:12:36.134Z,97607.24
2022-12-15T00:15:26.925Z,97606.85
2022-12-15T00:18:13.482Z,97602.84
2022-12-15T00:20:59.828Z,97604.94
2022-12-15T00:23:46.132Z,97612.81
2022-12-15T00:26:32.556Z,97615.02
2022-12-15T00:29:18.929Z,97608.76
2022-12-15T00:32:07.332Z,97604.65
2022-12-15T00:34:53.632Z,97612.64
2022-12-15T00:37:40.306Z,97619.82
2022-12-15T00:40:11.170Z,97622.23
2022-12-15T00:42:39.316Z,97610.07
2022-12-15T00:45:11.162Z,97614.04
2022-12-15T00:47:42.206Z,97617.38
2022-12-15T00:50:29.147Z,97618.25
2022-12-15T00:53:15.963Z,97624.38
2022-12-15T00:56:02.753Z,97622.38
2022-12-15T00:58:49.298Z,97624.66
2022-12-15T01:01:35.752Z,97624.06
2022-12-15T01:04:24.110Z,97619.05
2022-12-15T01:07:10.596Z,97619.69
2022-12-15T01:09:57.360Z,97623.09
2022-12-15T01:12:43.814Z,97631.35
2022-12-15T01:15:35.081Z,97637.70
2022-12-15T01:18:24.156Z,97628.60
2022-12-15T01:21:00.508Z,97630.00
2022-12-15T01:23:38.038Z,97634.90
2022-12-15T01:26:09.637Z,97640.45
2022-12-15T01:28:37.784Z,97649.60
2022-12-15T01:31:16.664Z,97645.70
2022-12-15T01:33:44.721Z,97651.36
2022-12-15T01:36:12.777Z,97650.52
2022-12-15T01:38:40.610Z,97654.94
2022-12-15T01:41:16.180Z,97659.15
2022-12-15T01:43:44.212Z,97661.38
2022-12-15T01:46:22.222Z,97662.42
2022-12-15T01:49:15.859Z,97667.48
2022-12-15T01:51:52.550Z,97670.95
2022-12-15T01:54:27.557Z,97667.08
2022-12-15T01:57:04.225Z,97665.79
2022-12-15T01:59:40.980Z,97671.63
2022-12-15T02:02:09.125Z,97674.58
2022-12-15T02:04:42.306Z,97669.31
2022-12-15T02:07:17.480Z,97661.84
2022-12-15T02:09:51.157Z,97665.17
2022-12-15T02:12:37.515Z,97665.96
2022-12-15T02:15:31.800Z,97658.08
2022-12-15T02:18:15.149Z,97658.63
2022-12-15T02:20:46.156Z,97660.88
2022-12-15T02:23:28.948Z,97661.00
2022-12-15T02:26:26.379Z,97668.68
2022-12-15T02:29:16.188Z,97669.06
2022-12-15T02:31:52.401Z,97666.15
2022-12-15T02:35:00.006Z,97668.33
2022-12-15T02:37:43.070Z,97675.70
2022-12-15T02:40:14.010Z,97682.80
2022-12-15T02:42:51.745Z,97686.71
2022-12-15T02:45:32.370Z,97679.24
2022-12-15T02:48:34.362Z,97690.84
2022-12-15T02:51:05.640Z,97687.98
2022-12-15T02:53:38.936Z,97690.54
2022-12-15T02:56:16.679Z,97698.80
2022-12-15T02:58:56.672Z,97698.77
2022-12-15T03:01:50.773Z,97696.81
2022-12-15T03:04:23.650Z,97699.17
2022-12-15T03:07:03.982Z,97704.49
2022-12-15T03:09:36.090Z,97709.79
2022-12-15T03:12:08.418Z,97710.76
2022-12-15T03:14:36.283Z,97713.98
2022-12-15T03:17:11.284Z,97713.90
2022-12-15T03:19:43.398Z,97704.77
2022-12-15T03:22:11.734Z,97705.38
2022-12-15T03:24:40.667Z,97704.39
2022-12-15T03:27:09.734Z,97708.48
2022-12-15T03:29:41.719Z,97709.70
2022-12-15T03:32:09.751Z,97712.46
2022-12-15T03:34:46.007Z,97718.56
2022-12-15T03:37:13.864Z,97717.87
2022-12-15T03:39:41.705Z,97720.85
2022-12-15T03:42:09.586Z,97722.34
2022-12-15T03:44:41.743Z,97727.16
2022-12-15T03:47:09.578Z,97731.64
2022-12-15T03:49:37.409Z,97736.53
2022-12-15T03:52:05.461Z,97738.14
2022-12-15T03:54:33.228Z,97738.44
2022-12-15T03:57:01.043Z,97743.29
2022-12-15T03:59:33.273Z,97749.58
2022-12-15T04:02:01.495Z,97750.31
2022-12-15T04:04:33.125Z,97759.89
2022-12-15T04:07:01.282Z,97766.81
2022-12-15T04:09:31.660Z,97768.16
2022-12-15T04:11:59.685Z,97770.71
2022-12-15T04:14:34.244Z,97773.30
2022-12-15T04:17:02.140Z,97779.42
2022-12-15T04:19:52.910Z,97785.81
2022-12-15T04:22:25.886Z,97783.58
2022-12-15T04:25:12.493Z,97784.64
2022-12-15T04:28:01.664Z,97782.72
2022-12-15T04:30:54.311Z,97790.91
2022-12-15T04:33:48.224Z,97794.81
2022-12-15T04:36:39.010Z,97799.20
2022-12-15T04:39:25.840Z,97801.98
2022-12-15T04:42:17.154Z,97800.40
2022-12-15T04:45:08.572Z,97807.03
2022-12-15T04:47:55.317Z,97813.13
2022-12-15T04:50:42.179Z,97814.89
2022-12-15T04:53:35.355Z,97816.98
2022-12-15T04:56:30.689Z,97823.63
2022-12-15T04:59:21.746Z,97827.64
2022-12-15T05:02:08.875Z,97827.11
2022-12-15T05:04:55.536Z,97829.52
2022-12-15T05:07:46.701Z,97835.23
2022-12-15T05:10:33.471Z,97838.27
2022-12-15T05:13:28.371Z,97845.70
2022-12-15T05:16:18.640Z,97849.83
2022-12-15T05:19:06.256Z,97856.90
2022-12-15T05:21:52.962Z,97863.88
2022-12-15T05:24:39.203Z,97865.24
2022-12-15T05:27:25.989Z,97867.87
2022-12-15T05:30:16.565Z,97870.92
2022-12-15T05:32:44.658Z,97875.51
2022-12-15T05:35:13.760Z,97876.94
2022-12-15T05:37:41.865Z,97882.98
2022-12-15T05:40:13.745Z,97882.17
2022-12-15T05:42:41.782Z,97889.12
2022-12-15T05:45:12.188Z,97898.17
2022-12-15T05:47:40.018Z,97906.48
2022-12-15T05:50:10.860Z,97912.33
2022-12-15T05:52:38.900Z,97920.79
2022-12-15T05:55:09.938Z,97926.38
2022-12-15T05:57:41.060Z,97928.66
2022-12-15T06:00:13.177Z,97934.51
2022-12-15T06:02:41.328Z,97937.20
2022-12-15T06:05:11.651Z,97943.38
2022-12-15T06:07:39.701Z,97947.06
2022-12-15T06:10:11.423Z,97947.77
2022-12-15T06:12:39.314Z,97949.53
2022-12-15T06:15:10.307Z,97960.86
2022-12-15T06:17:38.159Z,97960.33
2022-12-15T06:20:09.931Z,97961.06
2022-12-15T06:22:37.996Z,97966.64
2022-12-15T06:25:09.965Z,97972.53
2022-12-15T06:27:38.184Z,97977.11
2022-12-15T06:30:10.115Z,97985.98
2022-12-15T06:32:37.988Z,97992.41
2022-12-15T06:35:09.937Z,97997.41
2022-12-15T06:37:38.083Z,98000.35
2022-12-15T06:40:10.574Z,98004.34
2022-12-15T06:42:38.676Z,98007.98
2022-12-15T06:45:10.709Z,98015.13
2022-12-15T06:47:38.770Z,98021.63
2022-12-15T06:50:12.074Z,98029.36
2022-12-15T06:52:40.115Z,98035.61
2022-12-15T06:55:12.488Z,98035.89
2022-12-15T06:57:40.591Z,98037.23
2022-12-15T07:00:15.623Z,98045.90
2022-12-15T07:02:43.812Z,98050.35
2022-12-15T07:05:25.198Z,98052.53
2022-12-15T07:07:56.048Z,98053.48
2022-12-15T07:10:24.035Z,98054.92
2022-12-15T07:12:51.862Z,98063.73
2022-12-15T07:15:19.716Z,98069.89
2022-12-15T07:17:51.232Z,98071.45
2022-12-15T07:20:21.825Z,98071.40
2022-12-15T07:22:58.617Z,98070.95
2022-12-15T07:25:29.077Z,98081.12
2022-12-15T07:27:57.053Z,98084.10
2022-12-15T07:30:25.115Z,98085.73
2022-12-15T07:32:57.202Z,98093.63
2022-12-15T07:35:29.611Z,98097.23
2022-12-15T07:38:05.664Z,98104.16
2022-12-15T07:40:38.005Z,98107.92
2022-12-15T07:43:05.827Z,98115.73
2022-12-15T07:45:33.716Z,98123.39
2022-12-15T07:48:02.881Z,98131.42
2022-12-15T07:50:30.956Z,98129.44
2022-12-15T07:53:01.605Z,98134.93
2022-12-15T07:55:57.206Z,98140.95
2022-12-15T07:58:17.507Z,98154.60
2022-12-15T08:00:48.847Z,98161.19
2022-12-15T08:03:21.357Z,98166.02
2022-12-15T08:06:03.782Z,98171.79
2022-12-15T08:08:36.660Z,98171.23
2022-12-15T08:11:14.365Z,98177.96
2022-12-15T08:14:03.979Z,98187.58
2022-12-15T08:16:40.640Z,98190.46
2022-12-15T08:19:16.922Z,98196.66
2022-12-15T08:21:49.949Z,98201.56
2022-12-15T08:24:22.027Z,98205.10
2022-12-15T08:26:54.281Z,98203.07
2022-12-15T08:29:50.191Z,98202.62
2022-12-15T08:32:10.468Z,98201.29
2022-12-15T08:34:49.106Z,98206.08
2022-12-15T08:37:17.009Z,98212.21
2022-12-15T08:39:53.703Z,98216.67
2022-12-15T08:42:22.597Z,98218.83
2022-12-15T08:44:50.526Z,98222.59
2022-12-15T08:47:18.373Z,98228.13
2022-12-15T08:49:46.209Z,98230.14
2022-12-15T08:52:18.095Z,98230.20
2022-12-15T08:54:45.954Z,98235.52
2022-12-15T08:57:13.889Z,98234.37
2022-12-15T08:59:44.127Z,98240.02
2022-12-15T09:02:17.055Z,98247.59
2022-12-15T09:04:49.575Z,98247.14
2022-12-15T09:07:20.414Z,98242.70
2022-12-15T09:09:51.006Z,98247.00
2022-12-15T09:12:19.059Z,98248.80
2022-12-15T09:14:46.958Z,98252.74
2022-12-15T09:17:18.923Z,98257.97
2022-12-15T09:19:51.180Z,98259.11
2022-12-15T09:22:21.947Z,98265.27
2022-12-15T09:24:54.461Z,98270.69
2022-12-15T09:27:22.369Z,98277.04
2022-12-15T09:29:52.624Z,98277.49
2022-12-15T09:32:20.700Z,98276.32
2022-12-15T09:34:53.913Z,98276.69
2022-12-15T09:37:22.035Z,98280.23
2022-12-15T09:39:49.884Z,98280.98
2022-12-15T09:42:28.359Z,98280.48
2022-12-15T09:45:12.514Z,98274.61
2022-12-15T09:47:57.993Z,98276.41
2022-12-15T09:50:41.040Z,98271.98
2022-12-15T09:53:53.112Z,98269.29
2022-12-15T09:56:21.687Z,98275.11
2022-12-15T09:59:30.694Z,98279.69
2022-12-15T10:02:21.661Z,98282.63
2022-12-15T10:05:57.627Z,98287.96
2022-12-15T10:08:28.227Z,98286.31
2022-12-15T10:11:04.075Z,98285.86
2022-12-15T10:13:46.219Z,98277.53
2022-12-15T10:16:50.229Z,98280.98
2022-12-15T10:19:49.954Z,98282.58
2022-12-15T10:22:39.792Z,98286.87
2022-12-15T10:25:30.179Z,98282.49
2022-12-15T10:28:21.817Z,98277.95
2022-12-15T10:31:02.481Z,98289.38
2022-12-15T10:33:47.060Z,98300.14
2022-12-15T10:36:22.839Z,98298.59
2022-12-15T10:38:50.862Z,98296.87
2022-12-15T10:41:31.887Z,98300.83
2022-12-15T10:43:59.777Z,98307.56
2022-12-15T10:46:36.365Z,98307.42
2022-12-15T10:49:07.517Z,98311.45
2022-12-15T10:52:00.691Z,98301.69
2022-12-15T10:54:48.402Z,98308.83
2022-12-15T10:57:23.541Z,98313.95
2022-12-15T10:59:56.628Z,98314.40
2022-12-15T11:02:34.761Z,98311.58
2022-12-15T11:05:16.679Z,98316.60
2022-12-15T11:07:52.823Z,98319.64
2022-12-15T11:10:53.532Z,98326.39
2022-12-15T11:13:33.016Z,98314.60
2022-12-15T11:16:16.691Z,98314.77
2022-12-15T11:19:10.307Z,98321.77
2022-12-15T11:21:56.510Z,98322.83
2022-12-15T11:24:48.880Z,98332.48
2022-12-15T11:27:25.269Z,98340.65
2022-12-15T11:30:10.973Z,98345.87
2022-12-15T11:32:47.305Z,98344.58
2022-12-15T11:35:46.213Z,98345.93
2022-12-15T11:38:49.398Z,98363.02
2022-12-15T11:41:38.604Z,98366.41
2022-12-15T11:44:24.719Z,98371.08
2022-12-15T11:47:01.477Z,98373.75
2022-12-15T11:50:04.946Z,98367.61
2022-12-15T11:52:58.855Z,98364.13
2022-12-15T11:55:58.025Z,98367.06
2022-12-15T11:58:44.029Z,98372.29
2022-12-15T12:01:43.121Z,98368.58
2022-12-15T12:04:28.177Z,98376.66
2022-12-15T12:07:24.021Z,98388.66
2022-12-15T12:10:28.054Z,98399.34
2022-12-15T12:13:18.500Z,98402.98
2022-12-15T12:16:13.099Z,98403.67
2022-12-15T12:19:19.624Z,98395.86
2022-12-15T12:21:56.820Z,98380.73
2022-12-15T12:24:51.001Z,98389.33
2022-12-15T12:27:53.460Z,98386.79
2022-12-15T12:30:34.723Z,98385.70
2022-12-15T12:33:03.937Z,98384.84
2022-12-15T12:35:56.614Z,98391.27
2022-12-15T12:38:56.371Z,98395.04
2022-12-15T12:41:31.491Z,98394.66
2022-12-15T12:44:14.105Z,98400.27
2022-12-15T12:46:54.462Z,98394.98
2022-12-15T12:49:37.748Z,98408.73
2022-12-15T12:52:26.237Z,98412.66
2022-12-15T12:55:21.458Z,98409.52
2022-12-15T12:57:54.290Z,98415.84
2022-12-15T13:00:28.490Z,98419.45
2022-12-15T13:02:59.718Z,98420.72
2022-12-15T13:05:37.940Z,98423.94
2022-12-15T13:08:06.161Z,98427.45
2022-12-15T13:10:47.526Z,98432.02
2022-12-15T13:13:32.522Z,98431.39
2022-12-15T13:16:22.610Z,98432.31
2022-12-15T13:19:11.615Z,98434.56
2022-12-15T13:21:48.557Z,98442.31
2022-12-15T13:24:40.376Z,98443.79
2022-12-15T13:27:16.741Z,98441.26
2022-12-15T13:30:00.389Z,98431.98
2022-12-15T13:33:15.919Z,98429.47
2022-12-15T13:35:46.412Z,98429.65
2022-12-15T13:38:21.549Z,98434.77
2022-12-15T13:40:50.521Z,98448.66
2022-12-15T13:43:46.971Z,98453.30
2022-12-15T13:46:31.015Z,98454.73
2022-12-15T13:49:25.341Z,98452.55
2022-12-15T13:52:06.843Z,98455.67
2022-12-15T13:54:41.925Z,98458.52
2022-12-15T13:57:19.655Z,98466.33
2022-12-15T13:59:56.788Z,98463.27
2022-12-15T14:02:36.121Z,98465.25
2022-12-15T14:05:22.459Z,98467.13
2022-12-15T14:10:58.110Z,98485.48
2022-12-15T14:13:36.196Z,98483.73
2022-12-15T14:16:23.297Z,98489.46
2022-12-15T14:19:17.437Z,98484.95
2022-12-15T14:21:54.696Z,98479.05
2022-12-15T14:27:32.587Z,98498.41
2022-12-15T14:30:18.203Z,98504.16
2022-12-15T14:32:58.426Z,98503.01
2022-12-15T14:35:39.563Z,98498.53
2022-12-15T14:38:20.762Z,98489.84
2022-12-15T14:40:56.286Z,98496.73
2022-12-15T14:43:32.400Z,98505.20
2022-12-15T14:46:09.152Z,98501.30
2022-12-15T14:48:53.509Z,98500.56
2022-12-15T14:51:23.566Z,98502.20
2022-12-15T14:53:53.512Z,98511.89
2022-12-15T14:56:27.649Z,98515.39
2022-12-15T14:59:19.708Z,98521.63
2022-12-15T15:02:06.250Z,98517.02
2022-12-15T15:03:16.234Z,98470.41
2022-12-15T15:04:40.050Z,98512.78
2022-12-15T15:07:18.271Z,98521.12
2022-12-15T15:09:50.697Z,98528.77
2022-12-15T15:12:38.978Z,98534.71
2022-12-15T15:15:20.810Z,98541.00
2022-12-15T15:17:58.562Z,98536.18
2022-12-15T15:20:36.086Z,98539.86
2022-12-15T15:23:16.818Z,98546.13
2022-12-15T15:25:56.566Z,98552.23
2022-12-15T15:28:46.175Z,98553.61
2022-12-15T15:31:42.029Z,98550.04
2022-12-15T15:34:14.922Z,98557.71
2022-12-15T15:36:43.146Z,98558.10
2022-12-15T15:39:17.308Z,98559.69
2022-12-15T15:41:45.146Z,98564.75
2022-12-15T15:44:15.578Z,98567.17
2022-12-15T15:46:52.584Z,98565.27
2022-12-15T15:49:25.464Z,98565.95
2022-12-15T15:51:59.576Z,98564.41
2022-12-15T15:54:36.555Z,98571.36
2022-12-15T15:57:04.373Z,98573.48
2022-12-15T15:59:39.392Z,98571.81
2022-12-15T16:02:13.912Z,98576.70
2022-12-15T16:04:44.867Z,98575.89
2022-12-15T16:07:29.542Z,98584.31
2022-12-15T16:09:57.805Z,98592.92
2022-12-15T16:12:36.684Z,98598.48
2022-12-15T16:15:21.744Z,98600.59
2022-12-15T16:17:54.694Z,98610.18
2022-12-15T16:20:29.235Z,98616.96
2022-12-15T16:23:07.565Z,98624.46
2022-12-15T16:25:50.582Z,98627.11
2022-12-15T16:28:29.162Z,98631.54
2022-12-15T16:31:02.627Z,98634.05
2022-12-15T16:33:30.550Z,98638.43
2022-12-15T16:36:02.698Z,98643.84
2022-12-15T16:38:36.229Z,98644.55
2022-12-15T16:41:12.953Z,98645.98
2022-12-15T16:43:48.074Z,98644.63
2022-12-15T16:46:20.751Z,98642.75
2022-12-15T16:48:48.900Z,98636.50
2022-12-15T16:51:39.026Z,98635.27
2022-12-15T16:54:33.880Z,98633.52
2022-12-15T16:57:06.455Z,98635.65
2022-12-15T16:59:35.719Z,98628.55
2022-12-15T17:02:35.935Z,98628.20
2022-12-15T17:05:04.201Z,98625.97
2022-12-15T17:07:36.420Z,98624.14
2022-12-15T17:10:07.592Z,98622.11
2022-12-15T17:12:39.935Z,98625.91
2022-12-15T17:15:29.105Z,98625.86
2022-12-15T17:18:01.269Z,98622.31
2022-12-15T17:20:33.867Z,98614.58
2022-12-15T17:23:12.711Z,98611.04
2022-12-15T17:26:21.012Z,98604.52
2022-12-15T17:28:40.765Z,98599.94
2022-12-15T17:31:18.639Z,98598.14
2022-12-15T17:33:50.928Z,98600.52
2022-12-15T17:36:28.257Z,98599.56
2022-12-15T17:39:01.714Z,98597.96
2022-12-15T17:41:58.760Z,98602.44
2022-12-15T17:44:40.826Z,98608.34
2022-12-15T17:47:17.741Z,98609.55
2022-12-15T17:49:51.547Z,98613.20
2022-12-15T17:52:31.530Z,98618.20
2022-12-15T17:55:19.227Z,98622.70
2022-12-15T17:57:52.164Z,98628.23
2022-12-15T18:00:32.724Z,98625.63
2022-12-15T18:03:04.786Z,98626.99
2022-12-15T18:05:33.278Z,98631.32
2022-12-15T18:08:19.439Z,98626.20
2022-12-15T18:10:53.629Z,98627.35
2022-12-15T18:13:35.286Z,98624.98
2022-12-15T18:16:10.190Z,98623.60
2022-12-15T18:18:38.513Z,98627.75
2022-12-15T18:21:18.178Z,98629.43
2022-12-15T18:23:51.873Z,98628.52
2022-12-15T18:26:19.843Z,98626.05
2022-12-15T18:28:53.747Z,98619.82
2022-12-15T18:31:31.887Z,98622.61
2022-12-15T18:34:04.345Z,98623.27
2022-12-15T18:36:39.510Z,98620.31
2022-12-15T18:39:21.770Z,98612.99
2022-12-15T18:41:54.877Z,98612.20
2022-12-15T18:44:31.712Z,98612.05
2022-12-15T18:47:03.995Z,98609.30
2022-12-15T18:49:32.118Z,98615.60
2022-12-15T18:52:02.844Z,98622.71
2022-12-15T18:54:34.156Z,98625.94
2022-12-15T18:57:02.217Z,98623.31
2022-12-15T18:59:33.228Z,98619.15
2022-12-15T19:02:01.482Z,98617.99
2022-12-15T19:04:29.937Z,98623.42
2022-12-15T19:06:57.788Z,98630.04
2022-12-15T19:09:25.855Z,98630.45
2022-12-15T19:12:12.314Z,98626.17
2022-12-15T19:14:40.151Z,98631.81
2022-12-15T19:17:34.932Z,98634.27
2022-12-15T19:20:24.372Z,98637.43
2022-12-15T19:22:53.452Z,98638.84
2022-12-15T19:25:27.837Z,98645.80
2022-12-15T19:27:59.258Z,98645.06
2022-12-15T19:30:41.579Z,98642.23
2022-12-15T19:33:15.353Z,98643.87
2022-12-15T19:35:47.143Z,98646.63
2022-12-15T19:38:25.616Z,98640.33
2022-12-15T19:40:57.876Z,98637.34
2022-12-15T19:43:33.642Z,98640.80
2022-12-15T19:46:02.041Z,98647.94
2022-12-15T19:48:33.798Z,98644.13
2022-12-15T19:51:01.651Z,98636.85
2022-12-15T19:53:37.925Z,98634.31
2022-12-15T19:56:18.962Z,98628.62
2022-12-15T19:58:46.946Z,98632.53
2022-12-15T20:01:21.313Z,98633.14
2022-12-15T20:03:55.304Z,98633.52
2022-12-15T20:06:28.661Z,98622.43
2022-12-15T20:08:58.774Z,98619.66
2022-12-15T20:11:33.133Z,98623.51
2022-12-15T20:14:15.435Z,98627.00
2022-12-15T20:16:50.537Z,98629.63
2022-12-15T20:19:18.808Z,98626.00
2022-12-15T20:21:46.980Z,98626.96
2022-12-15T20:24:19.792Z,98629.69
2022-12-15T20:26:50.753Z,98627.48
2022-12-15T20:29:36.152Z,98628.50
2022-12-15T20:32:21.085Z,98624.33
2022-12-15T20:34:51.042Z,98630.39
2022-12-15T20:37:27.261Z,98633.95
2022-12-15T20:39:57.683Z,98632.63
2022-12-15T20:42:28.815Z,98634.06
2022-12-15T20:44:57.419Z,98624.32
2022-12-15T20:47:30.950Z,98621.55
2022-12-15T20:49:59.595Z,98619.96
2022-12-15T20:52:28.098Z,98621.92
2022-12-15T20:54:57.587Z,98629.56
2022-12-15T20:57:25.548Z,98629.45
2022-12-15T20:59:56.236Z,98635.95
2022-12-15T21:02:24.605Z,98631.81
2022-12-15T21:05:00.128Z,98635.10
2022-12-15T21:07:28.092Z,98633.24
2022-12-15T21:09:55.959Z,98632.92
2022-12-15T21:12:30.231Z,98627.33
2022-12-15T21:15:03.137Z,98622.77
2022-12-15T21:17:31.103Z,98623.46
2022-12-15T21:19:59.178Z,98627.96
2022-12-15T21:22:34.011Z,98619.29
2022-12-15T21:25:21.124Z,98618.27
2022-12-15T21:27:49.318Z,98614.64
2022-12-15T21:30:24.931Z,98619.48
2022-12-15T21:32:57.526Z,98620.55
2022-12-15T21:35:30.177Z,98621.67
2022-12-15T21:38:02.099Z,98620.69
2022-12-15T21:40:30.289Z,98620.56
2022-12-15T21:43:03.219Z,98627.20
2022-12-15T21:45:36.411Z,98634.67
2022-12-15T21:48:23.091Z,98640.77
2022-12-15T21:50:50.985Z,98634.61
2022-12-15T21:53:19.873Z,98632.14
2022-12-15T21:55:49.789Z,98629.39
2022-12-15T21:58:21.033Z,98623.62
2022-12-15T22:00:48.883Z,98622.23
2022-12-15T22:03:16.854Z,98616.36
2022-12-15T22:05:44.791Z,98613.41
2022-12-15T22:08:19.053Z,98612.04
2022-12-15T22:10:49.172Z,98606.14
2022-12-15T22:13:22.258Z,98595.16
2022-12-15T22:15:51.588Z,98586.30
2022-12-15T22:18:20.180Z,98577.10
2022-12-15T22:20:50.034Z,98576.80
2022-12-15T22:23:19.379Z,98574.74
2022-12-15T22:25:51.461Z,98569.00
2022-12-15T22:28:25.946Z,98570.38
2022-12-15T22:30:56.128Z,98565.33
2022-12-15T22:33:26.410Z,98562.54
2022-12-15T22:35:56.141Z,98555.81
2022-12-15T22:38:24.775Z,98559.27
2022-12-15T22:40:55.670Z,98547.98
2022-12-15T22:43:39.660Z,98541.55
2022-12-15T22:46:13.398Z,98542.91
2022-12-15T22:48:44.997Z,98536.98
2022-12-15T22:51:14.830Z,98535.39
2022-12-15T22:53:43.416Z,98532.58
2022-12-15T22:56:23.459Z,98533.26
2022-12-15T22:58:58.501Z,98530.62
2022-12-15T23:01:28.027Z,98525.92
2022-12-15T23:03:56.133Z,98524.87
2022-12-15T23:06:26.601Z,98520.70
2022-12-15T23:08:56.313Z,98517.77
2022-12-15T23:11:37.313Z,98516.40
2022-12-15T23:14:07.224Z,98509.09
2022-12-15T23:16:37.502Z,98507.53
2022-12-15T23:19:08.277Z,98509.71
2022-12-15T23:21:36.732Z,98510.89
2022-12-15T23:24:04.976Z,98506.99
2022-12-15T23:26:33.316Z,98506.33
2022-12-15T23:29:01.359Z,98502.21
2022-12-15T23:31:29.492Z,98497.27
2022-12-15T23:33:57.708Z,98487.90
2022-12-15T23:36:25.782Z,98479.23
2022-12-15T23:38:55.586Z,98476.39
2022-12-15T23:41:23.448Z,98464.27
2022-12-15T23:43:51.560Z,98454.08
2022-12-15T23:46:20.116Z,98453.25
2022-12-15T23:48:48.260Z,98444.89
2022-12-15T23:51:18.831Z,98433.98
2022-12-15T23:53:48.262Z,98430.95
2022-12-15T23:56:19.868Z,98427.14
2022-12-15T23:58:53.966Z,98426.10
